Time;durP1;ratioP1;P1;durP2;ratioP2;P2;SDS_P1;SDS_P2;PMS_P1;PMS_P2;Temp;Humidity;BMP_temperature;BMP_pressure;BME280_temperature;BME280_humidity;BME280_pressure;Samples;Min_cycle;Max_cycle;Signal;HPM_P1;HPM_P2
2022/05/09 00:02:06;;;;;;;8.18;3.40;;;;;;;13.03;52.09;102629.84;4976665;28;20041;-87
2022/05/09 00:04:32;;;;;;;8.68;3.78;;;;;;;12.91;51.67;102603.56;4993083;28;20025;-88
2022/05/09 00:06:57;;;;;;;12.55;4.03;;;;;;;13.00;51.70;102624.59;4977192;28;20394;-87
2022/05/09 00:09:22;;;;;;;7.43;3.15;;;;;;;12.98;52.05;102618.44;4990811;28;20113;-87
2022/05/09 00:11:48;;;;;;;9.02;3.50;;;;;;;12.93;51.64;102618.56;4998459;28;20077;-87
2022/05/09 00:14:14;;;;;;;7.32;3.22;;;;;;;12.96;52.00;102614.94;4976398;28;20032;-86
2022/05/09 00:16:40;;;;;;;7.35;3.47;;;;;;;12.98;51.83;102619.31;4973741;28;20382;-86
2022/05/09 00:19:07;;;;;;;7.70;3.22;;;;;;;12.92;51.70;102622.13;4991603;28;20022;-86
2022/05/09 00:21:36;;;;;;;6.97;3.33;;;;;;;12.74;51.93;102603.94;4994619;28;20502;-86
2022/05/09 00:24:02;;;;;;;9.07;3.53;;;;;;;12.79;52.19;102607.34;4975472;28;20027;-87
2022/05/09 00:26:31;;;;;;;10.85;3.42;;;;;;;12.68;51.97;102604.03;4995681;28;20116;-86
2022/05/09 00:28:57;;;;;;;9.90;3.50;;;;;;;12.71;52.15;102609.28;4977502;28;20470;-87
2022/05/09 00:31:24;;;;;;;11.23;3.63;;;;;;;12.66;52.65;102603.19;4987190;28;20205;-86
2022/05/09 00:33:49;;;;;;;12.60;3.47;;;;;;;12.68;52.45;102607.59;4972567;28;20052;-87
2022/05/09 00:36:16;;;;;;;9.98;3.38;;;;;;;12.70;52.57;102612.84;4993601;28;20474;-87
2022/05/09 00:38:43;;;;;;;9.75;3.90;;;;;;;12.45;53.10;102600.09;4990521;28;20037;-87
2022/05/09 00:43:53;;;;;;;10.27;3.42;;;;;;;12.57;57.05;102612.22;4985365;28;20494;-87
2022/05/09 00:46:18;;;;;;;5.40;3.30;;;;;;;12.32;54.37;102605.66;4971049;28;20153;-88
2022/05/09 00:48:43;;;;;;;7.97;3.35;;;;;;;12.23;55.95;102602.28;4993065;28;20038;-87
2022/05/09 00:51:10;;;;;;;6.35;3.78;;;;;;;12.22;57.30;102613.78;4994750;28;20026;-87
2022/05/09 00:53:37;;;;;;;11.73;3.72;;;;;;;11.96;59.93;102601.00;4976694;28;20025;-86
2022/05/09 00:56:07;;;;;;;7.43;3.53;;;;;;;11.83;59.50;102598.59;4977037;28;20076;-86
2022/05/09 00:58:38;;;;;;;7.88;3.63;;;;;;;11.81;58.44;102609.19;4995856;28;20684;-87
2022/05/09 01:01:04;;;;;;;6.47;3.60;;;;;;;11.68;60.50;102602.34;4986170;28;20030;-87
2022/05/09 01:03:38;;;;;;;6.43;3.92;;;;;;;11.65;59.39;102605.03;4973907;28;20026;-87
2022/05/09 01:06:04;;;;;;;9.65;3.35;;;;;;;11.60;58.05;102591.84;4974126;28;20381;-87
2022/05/09 01:08:31;;;;;;;6.32;3.33;;;;;;;11.68;57.51;102602.34;4989212;28;20037;-87
2022/05/09 01:10:57;;;;;;;9.70;4.10;;;;;;;11.72;57.60;102606.69;4972859;28;20038;-86
2022/05/09 01:13:30;;;;;;;7.03;3.38;;;;;;;11.52;59.86;102583.19;4993608;28;20571;-86
2022/05/09 01:15:56;;;;;;;;;;;;;;;11.71;55.37;102592.56;4986886;28;20490;-86
2022/05/09 01:18:22;;;;;;;6.72;3.42;;;;;;;11.46;61.17;102596.50;4973215;28;20292;-87
2022/05/09 01:20:47;;;;;;;11.38;3.45;;;;;;;11.27;57.94;102569.44;4990044;28;20026;-86
2022/05/09 01:23:13;;;;;;;7.07;3.50;;;;;;;11.37;59.11;102573.69;4996462;28;20029;-88
2022/05/09 01:25:39;;;;;;;5.55;3.47;;;;;;;11.32;61.75;102583.47;4989539;28;20034;-88
2022/05/09 01:28:05;;;;;;;10.82;3.30;;;;;;;11.22;57.41;102569.50;4974875;28;20025;-87
2022/05/09 01:31:01;;;;;;;8.50;4.07;;;;;;;11.34;56.77;102584.34;4990400;28;20076;-88
2022/05/09 01:33:37;;;;;;;6.78;3.60;;;;;;;11.22;60.09;102582.75;4990406;28;20034;-87
2022/05/09 01:36:16;;;;;;;5.75;3.60;;;;;;;11.18;60.55;102588.97;4974460;28;20030;-87
2022/05/09 01:38:52;;;;;;;9.57;3.70;;;;;;;11.16;58.20;102592.56;4991034;28;20046;-87
2022/05/09 01:41:18;;;;;;;5.15;3.53;;;;;;;11.07;57.73;102577.69;4988912;28;20532;-87
2022/05/09 01:43:48;;;;;;;7.32;3.08;;;;;;;10.98;58.97;102560.16;4995659;28;20049;-87
2022/05/09 01:46:18;;;;;;;12.40;3.85;;;;;;;11.00;61.31;102586.59;4988976;28;20375;-88
2022/05/09 01:51:28;;;;;;;8.65;3.65;;;;;;;10.72;60.95;102571.13;4990374;28;20041;-87
2022/05/09 01:53:54;;;;;;;4.88;3.33;;;;;;;10.68;62.37;102574.69;4975428;28;20030;-87
2022/05/09 01:56:25;;;;;;;10.18;3.60;;;;;;;10.63;61.81;102573.88;4990227;28;20038;-86
2022/05/09 01:58:51;;;;;;;9.65;4.20;;;;;;;10.67;63.87;102583.50;4979171;28;20562;-88
2022/05/09 02:01:18;;;;;;;6.88;3.05;;;;;;;10.58;63.66;102583.59;4970930;28;20178;-86
2022/05/09 02:03:46;;;;;;;7.35;4.00;;;;;;;10.55;62.10;102588.09;4989304;28;20087;-86
2022/05/09 02:06:12;;;;;;;7.70;3.70;;;;;;;10.47;62.90;102581.09;4970218;28;20565;-88
2022/05/09 02:08:39;;;;;;;10.27;3.97;;;;;;;10.52;63.33;102591.63;4972498;28;20132;-88
2022/05/09 02:11:05;;;;;;;7.63;3.45;;;;;;;10.52;60.33;102583.69;4989415;28;20377;-86
2022/05/09 02:13:30;;;;;;;10.18;3.72;;;;;;;10.48;59.50;102580.19;4990432;28;20043;-87
2022/05/09 02:15:55;;;;;;;7.45;3.35;;;;;;;10.44;59.33;102553.81;4988504;28;20026;-86
2022/05/09 02:18:21;;;;;;;8.80;4.10;;;;;;;10.29;58.45;102543.44;4990520;28;20037;-86
2022/05/09 02:20:49;;;;;;;7.07;3.55;;;;;;;10.32;63.00;102549.56;4992839;28;20041;-86
2022/05/09 02:23:14;;;;;;;7.97;3.55;;;;;;;10.37;63.04;102568.00;4975933;28;20076;-87
2022/05/09 02:25:42;;;;;;;10.23;3.97;;;;;;;10.36;61.16;102582.13;4972491;28;20050;-87
2022/05/09 02:28:09;;;;;;;8.70;4.20;;;;;;;10.18;61.50;102572.59;4989837;28;20026;-87
2022/05/09 02:30:35;;;;;;;10.07;3.90;;;;;;;10.04;61.55;102563.94;4988633;28;20025;-87
2022/05/09 02:33:04;;;;;;;8.52;3.60;;;;;;;10.04;62.28;102580.66;4991889;28;20109;-86
2022/05/09 02:35:29;;;;;;;10.38;4.18;;;;;;;9.88;66.03;102574.63;4970913;28;20830;-86
2022/05/09 02:37:55;;;;;;;8.07;3.63;;;;;;;9.79;62.53;102568.56;4991097;28;20053;-87
2022/05/09 02:40:24;;;;;;;5.28;3.13;;;;;;;9.81;64.99;102567.69;4997184;28;20109;-86
2022/05/09 02:42:49;;;;;;;4.72;3.53;;;;;;;9.71;61.97;102547.53;4990535;28;20556;-86
2022/05/09 02:45:14;;;;;;;6.78;3.67;;;;;;;9.70;64.46;102562.50;4975492;28;20113;-87
2022/05/09 02:47:43;;;;;;;5.60;3.35;;;;;;;9.66;63.33;102567.81;4973040;28;20121;-87
2022/05/09 02:50:09;;;;;;;9.20;3.70;;;;;;;9.61;62.50;102567.88;4975236;28;20153;-87
2022/05/09 02:52:37;;;;;;;5.22;3.33;;;;;;;9.65;63.50;102561.69;4972294;28;20519;-86
2022/05/09 02:55:04;;;;;;;12.90;3.90;;;;;;;9.47;66.26;102540.69;4974008;28;20037;-86
2022/05/09 02:57:29;;;;;;;9.77;3.83;;;;;;;9.56;62.54;102559.09;4973894;28;20544;-86
2022/05/09 02:59:55;;;;;;;7.18;3.85;;;;;;;9.56;63.01;102561.75;4971481;28;20034;-87
2022/05/09 03:02:20;;;;;;;10.32;4.50;;;;;;;9.56;62.02;102567.03;4977310;28;20328;-86
2022/05/09 03:04:46;;;;;;;7.57;4.10;;;;;;;9.58;62.19;102556.44;4994311;28;20041;-86
2022/05/09 03:07:14;;;;;;;6.07;3.97;;;;;;;9.63;65.78;102567.84;4975580;28;20060;-87
2022/05/09 03:09:42;;;;;;;7.65;4.05;;;;;;;9.52;66.21;102557.38;4993680;28;20081;-86
2022/05/09 03:12:09;;;;;;;12.80;4.20;;;;;;;9.41;64.14;102553.94;4991012;28;20030;-86
2022/05/09 03:14:35;;;;;;;8.27;3.63;;;;;;;9.32;64.49;102556.63;4994580;28;20508;-87
2022/05/09 03:17:02;;;;;;;7.03;3.83;;;;;;;9.19;66.22;102558.50;4992354;28;20408;-86
2022/05/09 03:19:27;;;;;;;8.82;3.38;;;;;;;9.16;63.21;102559.41;4992522;28;20440;-86
2022/05/09 03:21:53;;;;;;;7.03;3.50;;;;;;;9.15;64.82;102539.19;4978188;28;20038;-88
2022/05/09 03:24:19;;;;;;;6.70;3.35;;;;;;;9.21;64.78;102548.81;4997606;28;20201;-87
2022/05/09 03:26:48;;;;;;;6.90;3.75;;;;;;;9.23;66.02;102552.28;4980124;28;20655;-86
2022/05/09 03:29:15;;;;;;;9.00;4.18;;;;;;;9.17;64.36;102542.66;4993520;28;20045;-88
2022/05/09 03:31:40;;;;;;;6.82;3.45;;;;;;;9.17;62.79;102541.78;4975671;28;20022;-87
2022/05/09 03:34:06;;;;;;;7.30;3.83;;;;;;;9.09;63.84;102544.50;4978564;28;20026;-86
2022/05/09 03:36:32;;;;;;;8.25;3.58;;;;;;;9.09;63.56;102544.50;4980293;28;20505;-86
2022/05/09 03:38:57;;;;;;;6.90;4.38;;;;;;;9.13;63.23;102540.06;4974343;28;20029;-87
2022/05/09 03:41:23;;;;;;;9.27;3.85;;;;;;;9.10;63.38;102538.34;4979374;28;20058;-86
2022/05/09 03:43:48;;;;;;;8.05;3.72;;;;;;;9.09;63.16;102547.16;4995642;28;20433;-88
2022/05/09 03:46:14;;;;;;;6.70;3.58;;;;;;;9.06;62.36;102541.88;4996957;28;20034;-85
2022/05/09 03:48:39;;;;;;;5.45;3.33;;;;;;;9.10;62.40;102548.91;4976216;28;20034;-86
2022/05/09 03:51:05;;;;;;;8.13;3.42;;;;;;;9.11;62.61;102540.09;4997779;28;20079;-88
2022/05/09 03:53:31;;;;;;;8.43;4.72;;;;;;;9.15;68.05;102549.72;4975462;28;20167;-87
2022/05/09 03:55:56;;;;;;;8.02;3.67;;;;;;;9.07;66.86;102540.13;4978131;28;20674;-87
2022/05/09 03:58:22;;;;;;;9.27;3.97;;;;;;;9.00;64.35;102541.94;4993575;28;20077;-86
2022/05/09 04:00:47;;;;;;;6.72;3.45;;;;;;;8.83;63.45;102517.41;4970174;28;20026;-86
2022/05/09 04:03:13;;;;;;;8.05;3.67;;;;;;;8.91;63.13;102544.63;4997530;28;20057;-86
2022/05/09 04:05:38;;;;;;;7.43;3.78;;;;;;;8.84;63.52;102541.13;4976045;28;21199;-88
2022/05/09 04:08:08;;;;;;;5.32;3.88;;;;;;;8.82;63.80;102535.00;4993643;28;20058;-86
2022/05/09 04:10:35;;;;;;;8.10;3.53;;;;;;;8.81;63.19;102532.34;4993540;28;20057;-87
2022/05/09 04:13:01;;;;;;;7.78;3.83;;;;;;;8.85;63.44;102531.44;4972302;28;20082;-87
2022/05/09 04:18:12;;;;;;;6.13;3.20;;;;;;;9.00;64.43;102541.94;4995254;28;20053;-88
2022/05/09 04:20:38;;;;;;;7.43;3.97;;;;;;;8.96;66.17;102539.31;4994475;28;20425;-86
2022/05/09 04:23:04;;;;;;;10.68;4.25;;;;;;;8.99;64.00;102549.84;4989075;28;20053;-86
2022/05/09 04:25:33;;;;;;;8.90;3.53;;;;;;;8.92;63.51;102534.06;4989302;28;20026;-86
2022/05/09 04:28:02;;;;;;;8.90;4.45;;;;;;;9.00;67.11;102538.38;4991895;28;20401;-86
2022/05/09 04:30:28;;;;;;;5.63;3.13;;;;;;;8.89;65.67;102525.28;4973616;28;20488;-87
2022/05/09 04:32:53;;;;;;;5.72;3.38;;;;;;;8.83;64.00;102518.28;4974145;28;20367;-86
2022/05/09 04:35:20;;;;;;;6.68;3.42;;;;;;;8.96;64.17;102540.19;4977829;28;20045;-86
2022/05/09 04:37:47;;;;;;;7.68;3.35;;;;;;;8.88;66.77;102534.06;5002066;28;20033;-84
2022/05/09 04:40:19;;;;;;;11.48;4.53;;;;;;;8.88;64.16;102544.63;4975775;28;20101;-86
2022/05/09 04:42:44;;;;;;;8.73;3.67;;;;;;;8.89;64.05;102520.00;4974628;28;20591;-86
2022/05/09 04:45:12;;;;;;;9.27;5.13;;;;;;;9.01;63.78;102535.75;4975581;28;20164;-85
2022/05/09 04:47:38;;;;;;;7.28;4.40;;;;;;;8.95;64.08;102519.94;4992300;28;20038;-86
2022/05/09 04:50:04;;;;;;;10.48;3.95;;;;;;;8.97;64.86;102534.03;4974600;28;20371;-87
2022/05/09 04:52:29;;;;;;;8.95;3.90;;;;;;;8.81;64.16;102508.63;4973756;28;20042;-86
2022/05/09 04:54:55;;;;;;;7.65;4.10;;;;;;;8.91;64.83;102524.41;4979731;28;20156;-86
2022/05/09 04:57:21;;;;;;;9.77;3.80;;;;;;;8.99;64.50;102531.38;4993769;28;20088;-87
2022/05/09 04:59:46;;;;;;;8.18;4.07;;;;;;;9.00;64.49;102527.84;4989076;28;20058;-86
2022/05/09 05:02:12;;;;;;;11.07;3.88;;;;;;;9.04;64.69;102525.16;4970613;28;20026;-86
2022/05/09 05:04:37;;;;;;;9.05;3.75;;;;;;;9.16;64.27;102526.84;4993148;28;20034;-87
2022/05/09 05:07:03;;;;;;;11.70;4.70;;;;;;;9.17;64.29;102516.28;4980103;28;20051;-86
2022/05/09 05:09:30;;;;;;;11.95;4.47;;;;;;;9.28;64.55;102526.78;4971422;28;20042;-87
2022/05/09 05:11:55;;;;;;;10.05;4.85;;;;;;;9.35;64.77;102523.19;4974341;28;20369;-88
2022/05/09 05:14:21;;;;;;;15.80;4.97;;;;;;;9.41;64.22;102511.69;4974691;28;20121;-86
2022/05/09 05:17:01;;;;;;;11.32;4.82;;;;;;;9.46;66.78;102507.25;4973891;28;20026;-86
2022/05/09 05:19:28;;;;;;;13.20;4.88;;;;;;;9.61;64.69;102520.34;4972966;28;20037;-86
2022/05/09 05:21:56;;;;;;;11.15;5.22;;;;;;;9.61;70.91;102506.25;4976056;28;20121;-86
2022/05/09 05:24:21;;;;;;;12.52;5.07;;;;;;;9.78;70.17;102524.56;4993280;28;20026;-86
2022/05/09 05:26:47;;;;;;;10.30;5.20;;;;;;;9.71;65.25;102507.91;4974715;28;20676;-86
2022/05/09 05:29:13;;;;;;;10.10;5.13;;;;;;;9.85;64.86;102518.34;4974322;28;20485;-86
2022/05/09 05:31:38;;;;;;;10.40;5.18;;;;;;;9.88;65.01;102507.72;4989232;28;20487;-87
2022/05/09 05:34:04;;;;;;;13.18;5.82;;;;;;;9.92;69.71;102514.72;4989031;28;20034;-86
2022/05/09 05:36:29;;;;;;;11.02;4.97;;;;;;;10.02;66.52;102532.22;4993275;28;20029;-87
2022/05/09 05:38:54;;;;;;;10.77;5.55;;;;;;;10.10;65.36;102534.81;4978365;28;20018;-86
2022/05/09 05:41:22;;;;;;;15.10;6.85;;;;;;;10.21;71.23;102531.16;4973130;28;20108;-85
2022/05/09 05:43:48;;;;;;;9.68;5.75;;;;;;;10.27;65.66;102535.53;4990172;28;20053;-86
2022/05/09 05:46:14;;;;;;;10.85;5.95;;;;;;;10.34;69.49;102525.75;4973803;28;20117;-86
2022/05/09 05:48:40;;;;;;;11.60;6.05;;;;;;;10.36;68.77;102521.31;4972966;28;20545;-87
2022/05/09 05:51:05;;;;;;;10.43;5.32;;;;;;;10.38;66.72;102517.75;4991391;28;20037;-87
2022/05/09 05:53:31;;;;;;;14.50;6.10;;;;;;;10.48;69.67;102521.16;4979058;28;20390;-86
2022/05/09 05:55:56;;;;;;;16.05;5.57;;;;;;;10.54;66.57;102534.31;4991753;28;20133;-87
2022/05/09 05:58:23;;;;;;;12.90;5.55;;;;;;;10.57;65.66;102526.31;4974369;28;20053;-87
2022/05/09 06:00:48;;;;;;;19.58;6.00;;;;;;;10.58;66.21;102528.06;4987265;28;20033;-87
2022/05/09 06:03:15;;;;;;;15.43;5.60;;;;;;;10.61;65.40;102516.59;4970515;28;20096;-89
2022/05/09 06:05:41;;;;;;;11.52;6.25;;;;;;;10.79;66.33;102531.34;4975894;28;20037;-86
2022/05/09 06:08:07;;;;;;;11.00;6.05;;;;;;;10.81;66.23;102514.53;4988808;28;20026;-86
2022/05/09 06:10:33;;;;;;;9.23;5.00;;;;;;;10.85;65.20;102518.00;4969950;28;20545;-87
2022/05/09 06:13:05;;;;;;;10.63;5.05;;;;;;;10.94;64.47;102517.88;4970927;28;20033;-87
2022/05/09 06:15:36;;;;;;;14.45;5.75;;;;;;;11.09;63.48;102533.53;4986697;28;20028;-88
2022/05/09 06:18:04;;;;;;;11.23;6.05;;;;;;;11.18;65.89;102530.72;4992990;28;20030;-86
2022/05/09 06:20:32;;;;;;;14.48;5.72;;;;;;;11.29;66.45;102517.34;4991202;28;20076;-86
2022/05/09 06:22:59;;;;;;;13.13;6.43;;;;;;;11.46;64.08;102532.94;4993438;28;20109;-86
2022/05/09 06:25:26;;;;;;;16.20;6.18;;;;;;;11.58;63.88;102523.94;4968887;28;20061;-86
2022/05/09 06:27:52;;;;;;;12.80;5.35;;;;;;;11.73;63.36;102529.81;4975151;28;20025;-87
2022/05/09 06:30:20;;;;;;;11.80;5.47;;;;;;;11.87;61.04;102523.44;4973017;28;20478;-86
2022/05/09 06:32:46;;;;;;;17.85;5.85;;;;;;;12.02;61.12;102533.72;4971258;28;20045;-87
2022/05/09 06:35:20;;;;;;;10.77;5.25;;;;;;;12.19;62.53;102529.00;4986733;28;20117;-87
2022/05/09 06:37:47;;;;;;;11.88;5.40;;;;;;;12.27;60.03;102527.97;4985958;28;20030;-88
2022/05/09 06:40:13;;;;;;;9.80;5.85;;;;;;;12.34;59.58;102529.59;4987428;28;20247;-88
2022/05/09 06:42:39;;;;;;;12.90;5.32;;;;;;;12.44;60.92;102521.38;4988442;28;20041;-87
2022/05/09 06:45:05;;;;;;;13.77;5.30;;;;;;;12.61;59.57;102517.53;4989846;28;20030;-88
2022/05/09 06:47:31;;;;;;;13.40;6.32;;;;;;;12.69;59.82;102508.50;4987082;28;20501;-87
2022/05/09 06:50:00;;;;;;;13.73;5.55;;;;;;;12.97;58.43;102526.44;4990399;28;20034;-87
2022/05/09 06:52:26;;;;;;;12.07;5.32;;;;;;;13.05;57.20;102508.53;4973184;28;20084;-88
2022/05/09 06:54:51;;;;;;;12.90;4.95;;;;;;;13.25;57.74;102518.72;4989183;28;20034;-87
2022/05/09 06:57:17;;;;;;;18.17;5.93;;;;;;;13.42;54.96;102512.97;4987176;28;20029;-87
2022/05/09 06:59:42;;;;;;;11.43;5.07;;;;;;;13.52;55.24;102495.88;4984171;28;20105;-87
2022/05/09 07:02:12;;;;;;;14.02;5.65;;;;;;;13.71;55.21;102521.09;4983314;28;22045;-87
2022/05/09 07:04:38;;;;;;;17.52;6.15;;;;;;;13.72;54.46;102524.63;4986534;28;20048;-87
2022/05/09 07:07:03;;;;;;;13.85;5.88;;;;;;;13.73;54.95;102505.97;4992806;28;20041;-87
2022/05/09 07:09:29;;;;;;;11.90;5.53;;;;;;;13.94;55.07;102514.25;4992365;28;20035;-87
2022/05/09 07:11:54;;;;;;;16.65;5.50;;;;;;;13.94;53.60;102509.84;4986104;28;20112;-88
2022/05/09 07:14:23;;;;;;;10.75;5.00;;;;;;;14.02;54.54;102507.81;4985428;28;20038;-87
2022/05/09 07:16:48;;;;;;;13.68;5.60;;;;;;;14.18;55.47;102505.63;4967884;28;20015;-87
2022/05/09 07:19:14;;;;;;;10.98;5.82;;;;;;;14.30;53.96;102510.56;4990276;28;20061;-87
2022/05/09 07:21:40;;;;;;;11.90;5.57;;;;;;;14.46;52.88;102507.47;4966594;28;20027;-87
2022/05/09 07:24:06;;;;;;;12.68;5.38;;;;;;;14.71;52.51;102500.50;4985552;28;20397;-87
2022/05/09 07:26:33;;;;;;;13.23;5.45;;;;;;;14.72;51.03;102502.25;4975642;28;20034;-85
2022/05/09 07:28:58;;;;;;;13.88;6.75;;;;;;;14.79;51.44;102506.47;4989071;28;20026;-87
2022/05/09 07:31:23;;;;;;;11.75;5.82;;;;;;;15.00;50.32;102506.72;4969775;28;20038;-86
2022/05/09 07:33:49;;;;;;;11.85;5.68;;;;;;;15.45;50.47;102509.66;4973920;28;20513;-86
2022/05/09 07:36:14;;;;;;;10.45;5.68;;;;;;;15.94;49.47;102515.09;4989670;28;20248;-87
2022/05/09 07:38:39;;;;;;;13.27;5.72;;;;;;;16.44;47.48;102491.00;4988661;28;20390;-86
2022/05/09 07:41:05;;;;;;;13.50;5.93;;;;;;;16.97;46.07;102498.72;4985170;28;20042;-87
2022/05/09 07:43:30;;;;;;;12.68;5.13;;;;;;;17.47;46.26;102499.31;4993282;28;20707;-87
2022/05/09 07:45:56;;;;;;;8.80;4.93;;;;;;;17.82;44.09;102491.59;4965542;28;20466;-87
2022/05/09 07:48:24;;;;;;;15.00;5.50;;;;;;;18.09;43.78;102484.13;4974205;28;20296;-87
2022/05/09 07:50:50;;;;;;;9.00;4.78;;;;;;;18.54;41.56;102501.69;4977658;28;21090;-87
2022/05/09 07:53:25;;;;;;;13.20;5.40;;;;;;;18.61;41.46;102492.44;4974368;28;20026;-85
2022/05/09 07:55:51;;;;;;;11.52;5.85;;;;;;;19.05;40.40;102509.06;4990359;28;20694;-87
2022/05/09 07:58:17;;;;;;;11.50;5.00;;;;;;;19.32;40.06;102511.31;4989883;28;20076;-86
2022/05/09 08:00:44;;;;;;;14.00;5.50;;;;;;;19.65;39.88;102508.75;4973907;28;20081;-86
2022/05/09 08:03:16;;;;;;;10.43;4.90;;;;;;;19.98;39.91;102502.56;4992876;28;20439;-86
2022/05/09 08:05:42;;;;;;;9.38;5.63;;;;;;;20.39;38.19;102505.72;4994549;28;20097;-86
2022/05/09 08:08:08;;;;;;;12.57;5.75;;;;;;;20.44;37.22;102500.94;4976527;28;20058;-86
2022/05/09 08:10:35;;;;;;;9.38;5.60;;;;;;;20.48;37.60;102505.22;4976976;28;20084;-86
2022/05/09 08:13:03;;;;;;;10.68;5.50;;;;;;;21.00;37.67;102506.78;4971477;28;20033;-85
2022/05/09 08:15:30;;;;;;;12.10;5.40;;;;;;;21.51;37.01;102510.09;4972542;28;21295;-85
2022/05/09 08:17:56;;;;;;;14.07;5.45;;;;;;;21.99;35.11;102508.06;4993371;28;20494;-85
2022/05/09 08:20:22;;;;;;;10.73;5.95;;;;;;;22.46;33.79;102507.81;4991995;28;20318;-86
2022/05/09 08:22:47;;;;;;;12.52;5.57;;;;;;;22.85;33.61;102503.53;4993240;28;20077;-85
2022/05/09 08:25:14;;;;;;;14.13;5.40;;;;;;;23.32;33.56;102505.78;4988346;28;20077;-86
2022/05/09 08:27:40;;;;;;;10.85;5.70;;;;;;;23.61;32.73;102506.47;4992793;28;20478;-85
2022/05/09 08:30:07;;;;;;;12.20;5.40;;;;;;;24.37;32.45;102508.38;4987200;28;20026;-86
2022/05/09 08:32:36;;;;;;;12.10;5.80;;;;;;;24.79;30.61;102505.34;4988527;28;20034;-86
2022/05/09 08:35:03;;;;;;;10.05;5.18;;;;;;;25.17;31.43;102499.78;4973642;28;20496;-85
2022/05/09 08:37:28;;;;;;;14.10;5.30;;;;;;;25.32;29.75;102500.47;4970888;28;20134;-85
2022/05/09 08:39:53;;;;;;;10.15;5.35;;;;;;;25.84;30.15;102488.34;4988292;28;20125;-85
2022/05/09 08:42:29;;;;;;;14.63;5.25;;;;;;;26.38;29.99;102501.16;4969851;28;20034;-85
2022/05/09 08:45:02;;;;;;;10.25;5.50;;;;;;;26.71;29.72;102503.00;4985133;28;20045;-86
2022/05/09 08:47:55;;;;;;;12.95;5.85;;;;;;;26.98;29.12;102499.84;4982302;28;20050;-85
2022/05/09 08:50:27;;;;;;;11.93;5.40;;;;;;;27.13;27.39;102490.44;4988387;28;20190;-86
2022/05/09 08:53:01;;;;;;;13.57;5.28;;;;;;;27.50;27.16;102498.16;4986023;28;20433;-85
2022/05/09 08:55:37;;;;;;;9.10;4.95;;;;;;;27.40;26.99;102495.38;4971992;28;20034;-86
2022/05/09 08:58:37;;;;;;;9.38;4.72;;;;;;;27.33;27.99;102487.91;4970094;28;20054;-86
2022/05/09 09:01:05;;;;;;;14.85;5.55;;;;;;;28.13;26.28;102499.03;4982815;28;20026;-86
2022/05/09 09:03:35;;;;;;;8.18;4.50;;;;;;;28.23;25.24;102494.47;4974142;28;20544;-85
2022/05/09 09:06:05;;;;;;;10.95;5.07;;;;;;;27.76;25.71;102495.09;4965809;28;20527;-86
2022/05/09 09:09:02;;;;;;;8.68;5.05;;;;;;;28.12;27.40;102496.41;4988550;28;20084;-85
2022/05/09 09:11:46;;;;;;;13.27;5.25;;;;;;;28.39;23.81;102487.69;4990998;28;20034;-85
2022/05/09 09:14:42;;;;;;;11.50;4.85;;;;;;;29.31;25.94;102484.69;4990296;28;20127;-85
2022/05/09 09:17:33;;;;;;;8.07;4.10;;;;;;;29.71;25.72;102482.66;4992951;28;20100;-85
2022/05/09 09:20:50;;;;;;;12.90;5.30;;;;;;;29.23;25.38;102477.22;4988800;28;20037;-85
2022/05/09 09:23:53;;;;;;;7.82;4.40;;;;;;;29.30;25.42;102477.53;4928116;29;20031;-86
2022/05/09 09:26:30;;;;;;;9.20;4.43;;;;;;;29.07;25.26;102466.94;4988595;28;20506;-85
2022/05/09 09:29:03;;;;;;;9.20;4.05;;;;;;;29.17;23.95;102483.28;4967907;28;20064;-86
2022/05/09 09:31:34;;;;;;;11.70;4.60;;;;;;;28.67;22.93;102469.72;4987631;28;20034;-86
2022/05/09 09:34:04;;;;;;;9.35;4.65;;;;;;;28.36;25.18;102467.06;4967582;28;20050;-86
2022/05/09 09:36:38;;;;;;;11.23;4.22;;;;;;;28.56;25.46;102469.84;4990882;28;20065;-85
2022/05/09 09:39:26;;;;;;;12.00;4.88;;;;;;;28.41;26.27;102462.06;4967241;28;20049;-86
2022/05/09 09:41:52;;;;;;;12.60;4.93;;;;;;;27.89;26.03;102458.56;4986402;28;20022;-86
2022/05/09 09:44:24;;;;;;;8.07;3.92;;;;;;;27.76;28.08;102476.06;4990729;28;20397;-86
2022/05/09 09:47:07;;;;;;;9.30;4.00;;;;;;;28.01;27.13;102467.47;4968274;28;20033;-86
2022/05/09 09:49:38;;;;;;;13.98;4.75;;;;;;;27.74;26.30;102459.88;4968172;28;20092;-87
2022/05/09 09:52:14;;;;;;;9.02;4.40;;;;;;;27.71;27.19;102460.13;4985485;28;20541;-87
2022/05/09 09:54:44;;;;;;;7.82;4.30;;;;;;;27.39;25.55;102452.06;4951869;28;20291;-86
2022/05/09 09:57:17;;;;;;;12.13;4.93;;;;;;;27.47;26.90;102446.84;4971097;28;20030;-86
2022/05/09 09:59:42;;;;;;;9.00;4.53;;;;;;;27.28;27.19;102453.00;4983436;28;20038;-88
2022/05/09 10:02:22;;;;;;;11.30;4.00;;;;;;;27.54;27.62;102455.31;4974027;28;20053;-86
2022/05/09 10:04:48;;;;;;;9.98;5.00;;;;;;;27.80;25.54;102444.91;4963486;28;20037;-87
2022/05/09 10:07:35;;;;;;;9.30;4.72;;;;;;;27.83;25.56;102441.91;4985663;28;20357;-86
2022/05/09 10:10:20;;;;;;;7.28;4.55;;;;;;;27.92;25.06;102427.50;4966177;28;20077;-86
2022/05/09 10:12:54;;;;;;;7.55;4.57;;;;;;;27.68;25.51;102436.78;4964201;28;20042;-85
2022/05/09 10:15:30;;;;;;;13.30;4.60;;;;;;;27.73;26.06;102439.13;4966471;28;20508;-87
2022/05/09 10:17:58;;;;;;;11.02;4.78;;;;;;;27.83;25.20;102436.47;4983088;28;20477;-86
2022/05/09 10:20:39;;;;;;;9.25;4.72;;;;;;;28.15;26.79;102428.16;4968821;28;20489;-86
2022/05/09 10:26:22;;;;;;;7.63;4.32;;;;;;;27.77;25.98;102424.28;4992414;28;20041;-86
2022/05/09 10:28:54;;;;;;;9.95;4.22;;;;;;;27.87;24.72;102416.19;4990150;28;20493;-88
2022/05/09 10:31:30;;;;;;;;;;;;;;;28.03;25.42;102421.13;4986314;28;20052;-87
2022/05/09 10:34:00;;;;;;;9.05;3.70;;;;;;;28.22;24.60;102415.75;4970587;28;20318;-88
2022/05/09 10:36:36;;;;;;;11.88;4.20;;;;;;;28.34;24.46;102405.59;4974406;28;20713;-87
2022/05/09 10:39:32;;;;;;;16.02;4.35;;;;;;;28.03;24.33;102412.97;4991756;28;20030;-87
2022/05/09 10:42:03;;;;;;;12.10;4.40;;;;;;;27.94;26.35;102399.19;4984632;28;20105;-87
2022/05/09 10:44:54;;;;;;;8.50;3.90;;;;;;;28.59;24.73;102401.53;4988509;28;20239;-86
2022/05/09 10:47:30;;;;;;;9.05;4.13;;;;;;;28.52;23.41;102401.22;4967103;28;20065;-90
2022/05/09 10:50:22;;;;;;;7.00;4.63;;;;;;;28.65;24.24;102406.41;4972962;28;20041;-89
2022/05/09 10:53:03;;;;;;;7.82;4.03;;;;;;;28.89;23.73;102398.66;4968396;28;20476;-88
2022/05/09 10:55:34;;;;;;;8.70;4.25;;;;;;;28.49;23.95;102406.94;4974649;28;20045;-90
2022/05/09 10:58:08;;;;;;;7.20;4.07;;;;;;;27.76;24.12;102394.53;4990383;28;20057;-87
2022/05/09 11:00:39;;;;;;;10.43;4.93;;;;;;;28.01;24.66;102387.75;4972686;28;20109;-87
2022/05/09 11:03:08;;;;;;;9.23;3.80;;;;;;;28.38;25.32;102388.88;4976797;28;20033;-88
2022/05/09 11:06:09;;;;;;;8.95;4.65;;;;;;;27.90;23.32;102399.59;4988781;28;20038;-87
2022/05/09 11:09:11;;;;;;;8.30;4.70;;;;;;;27.67;24.97;102397.03;4963493;28;20057;-89
2022/05/09 11:11:53;;;;;;;8.25;4.50;;;;;;;27.93;24.95;102372.13;4982865;28;20030;-89
2022/05/09 11:14:33;;;;;;;;;;;;;;;28.59;25.09;102377.03;4971924;28;20038;-87
2022/05/09 11:17:17;;;;;;;9.23;4.53;;;;;;;28.37;25.39;102386.31;4951273;28;19929;-89
2022/05/09 11:20:21;;;;;;;8.57;4.70;;;;;;;28.68;23.81;102384.34;4987450;28;20049;-88
2022/05/09 11:22:57;;;;;;;8.63;4.32;;;;;;;28.84;22.80;102376.47;4966080;28;20742;-90
2022/05/09 11:25:44;;;;;;;8.85;5.25;;;;;;;28.21;23.45;102375.94;4993992;28;20030;-88
2022/05/09 11:28:31;;;;;;;8.00;4.32;;;;;;;28.60;24.66;102376.91;4989666;28;20026;-88
2022/05/09 11:31:21;;;;;;;8.73;4.32;;;;;;;28.84;23.06;102368.28;4993186;28;20110;-88
2022/05/09 11:34:31;;;;;;;8.05;4.53;;;;;;;29.45;23.33;102357.03;4974122;28;20038;-88
2022/05/09 11:37:20;;;;;;;10.02;4.80;;;;;;;29.92;22.29;102359.72;4995159;28;20052;-88
2022/05/09 11:40:13;;;;;;;7.00;4.15;;;;;;;30.24;23.21;102352.97;4993781;28;20030;-88
2022/05/09 11:46:11;;;;;;;9.68;4.88;;;;;;;30.77;22.02;102346.69;4987056;28;20041;-89
2022/05/09 11:49:15;;;;;;;8.90;4.45;;;;;;;30.74;22.66;102345.13;4997093;28;20465;-87
2022/05/09 11:52:00;;;;;;;7.75;4.70;;;;;;;30.04;22.09;102335.00;4949436;28;20114;-88
2022/05/09 11:54:42;;;;;;;11.80;4.43;;;;;;;29.92;22.68;102342.50;4995038;28;20338;-87